Time;durP1;ratioP1;P1;durP2;ratioP2;P2;SDS_P1;SDS_P2;PMS_P1;PMS_P2;Temp;Humidity;BMP_temperature;BMP_pressure;BME280_temperature;BME280_humidity;BME280_pressure;Samples;Min_cycle;Max_cycle;Signal;HPM_P1;HPM_P2
2023/03/04 00:01:07;;;;;;;3.80;0.90;;;;;;;;;;5138276;27;20070;-56
2023/03/04 00:03:33;;;;;;;3.42;1.10;;;;;;;;;;5138358;27;20043;-56
2023/03/04 00:05:59;;;;;;;2.47;0.90;;;;;;;;;;5145403;27;20658;-57
2023/03/04 00:08:25;;;;;;;2.97;0.63;;;;;;;;;;5143654;27;20059;-56
2023/03/04 00:10:51;;;;;;;3.53;0.70;;;;;;;;;;5133097;27;20082;-56
2023/03/04 00:13:19;;;;;;;1.50;0.50;;;;;;;;;;5129592;27;20039;-57
2023/03/04 00:15:45;;;;;;;6.68;1.10;;;;;;;;;;5135282;27;20047;-54
2023/03/04 00:18:11;;;;;;;0.95;0.45;;;;;;;;;;5109585;28;20047;-56
2023/03/04 00:20:37;;;;;;;1.63;0.55;;;;;;;;;;5125219;28;20043;-59
2023/03/04 00:23:03;;;;;;;1.85;0.65;;;;;;;;;;5124862;28;20043;-57
2023/03/04 00:25:29;;;;;;;4.97;1.05;;;;;;;;;;5125139;28;20043;-57
2023/03/04 00:27:55;;;;;;;6.60;1.15;;;;;;;;;;5125049;28;20126;-57
2023/03/04 00:30:21;;;;;;;4.53;1.13;;;;;;;;;;5128928;27;20058;-54
2023/03/04 00:32:47;;;;;;;5.65;1.40;;;;;;;;;;5132143;27;20043;-58
2023/03/04 00:35:13;;;;;;;4.75;1.42;;;;;;;;;;5125686;27;20084;-55
2023/03/04 00:37:39;;;;;;;6.78;1.05;;;;;;;;;;5129436;27;20049;-53
2023/03/04 00:40:05;;;;;;;3.45;1.08;;;;;;;;;;5133525;27;20031;-55
2023/03/04 00:42:31;;;;;;;2.40;1.00;;;;;;;;;;5133815;27;20409;-57
2023/03/04 00:44:57;;;;;;;5.75;1.40;;;;;;;;;;5132838;27;20039;-55
2023/03/04 00:47:23;;;;;;;3.15;1.17;;;;;;;;;;5133087;27;20049;-55
2023/03/04 00:49:49;;;;;;;4.32;0.85;;;;;;;;;;5136406;27;20035;-55
2023/03/04 00:52:15;;;;;;;12.32;1.85;;;;;;;;;;5139022;27;20034;-55
2023/03/04 00:54:41;;;;;;;4.82;0.68;;;;;;;;;;5132794;27;20043;-55
2023/03/04 00:57:07;;;;;;;9.35;1.55;;;;;;;;;;5135420;27;20042;-58
2023/03/04 00:59:33;;;;;;;6.55;1.25;;;;;;;;;;5130526;27;20510;-60
2023/03/04 01:01:59;;;;;;;6.55;1.17;;;;;;;;;;5134935;27;20046;-57
2023/03/04 01:04:25;;;;;;;4.88;1.20;;;;;;;;;;5132491;27;20505;-57
2023/03/04 01:06:51;;;;;;;11.70;1.70;;;;;;;;;;5137506;27;20120;-57
2023/03/04 01:09:17;;;;;;;6.10;2.25;;;;;;;;;;5137267;27;20042;-57
2023/03/04 01:11:43;;;;;;;5.18;1.10;;;;;;;;;;5134315;27;20042;-57
2023/03/04 01:14:09;;;;;;;2.03;1.25;;;;;;;;;;5135274;27;20039;-58
2023/03/04 01:16:35;;;;;;;6.03;1.38;;;;;;;;;;5135555;27;20051;-57
2023/03/04 01:19:01;;;;;;;5.25;1.05;;;;;;;;;;5138631;27;20081;-57
2023/03/04 01:21:27;;;;;;;5.20;1.05;;;;;;;;;;5139051;27;20068;-58
2023/03/04 01:23:53;;;;;;;3.55;0.80;;;;;;;;;;5135842;27;20054;-57
2023/03/04 01:26:20;;;;;;;4.10;1.00;;;;;;;;;;5139086;27;20122;-57
2023/03/04 01:28:46;;;;;;;6.10;0.80;;;;;;;;;;5137043;27;20405;-57
2023/03/04 01:31:12;;;;;;;4.90;1.00;;;;;;;;;;5138767;27;20435;-58
2023/03/04 01:33:37;;;;;;;3.90;0.80;;;;;;;;;;5137743;27;20035;-57
2023/03/04 01:36:04;;;;;;;2.55;1.00;;;;;;;;;;5138866;27;20035;-57
2023/03/04 01:38:30;;;;;;;6.18;1.00;;;;;;;;;;5137579;27;20435;-57
2023/03/04 01:40:56;;;;;;;2.50;0.73;;;;;;;;;;5136496;27;20050;-58
2023/03/04 01:43:24;;;;;;;2.55;1.05;;;;;;;;;;5134379;27;20087;-58
2023/03/04 01:45:51;;;;;;;2.85;1.00;;;;;;;;;;5138819;27;20118;-57
2023/03/04 01:48:19;;;;;;;4.97;1.70;;;;;;;;;;5134943;27;20047;-57
2023/03/04 01:50:45;;;;;;;4.43;1.00;;;;;;;;;;5138218;27;20125;-60
2023/03/04 01:53:23;;;;;;;2.03;0.90;;;;;;;;;;5134230;27;20039;-55
2023/03/04 01:55:49;;;;;;;3.40;0.82;;;;;;;;;;5135180;27;20117;-55
2023/03/04 01:58:15;;;;;;;6.68;1.27;;;;;;;;;;5133407;27;20049;-55
2023/03/04 02:00:42;;;;;;;4.05;0.82;;;;;;;;;;5137985;27;20057;-54
2023/03/04 02:03:13;;;;;;;1.63;0.65;;;;;;;;;;5133192;27;20049;-54
2023/03/04 02:05:40;;;;;;;4.15;1.00;;;;;;;;;;5133415;27;20583;-55
2023/03/04 02:08:07;;;;;;;3.05;1.00;;;;;;;;;;5135091;27;20769;-55
2023/03/04 02:10:33;;;;;;;5.07;1.25;;;;;;;;;;5131614;27;20051;-55
2023/03/04 02:13:00;;;;;;;3.65;1.20;;;;;;;;;;5135735;27;20126;-55
2023/03/04 02:15:27;;;;;;;5.38;1.20;;;;;;;;;;5133748;27;20050;-55
2023/03/04 02:17:53;;;;;;;4.05;1.00;;;;;;;;;;5134846;27;20049;-55
2023/03/04 02:20:19;;;;;;;4.03;1.02;;;;;;;;;;5113808;27;20059;-55
2023/03/04 02:22:49;;;;;;;6.07;1.50;;;;;;;;;;5137048;27;20540;-54
2023/03/04 02:25:18;;;;;;;5.35;1.10;;;;;;;;;;5134009;27;20061;-55
2023/03/04 02:27:44;;;;;;;5.93;0.70;;;;;;;;;;5115028;27;20043;-57
2023/03/04 02:30:11;;;;;;;1.45;0.57;;;;;;;;;;5133641;27;20054;-57
2023/03/04 02:32:37;;;;;;;3.15;1.05;;;;;;;;;;5136144;27;20708;-60
2023/03/04 02:35:03;;;;;;;2.72;0.70;;;;;;;;;;5135879;27;20047;-57
2023/03/04 02:37:29;;;;;;;3.08;0.80;;;;;;;;;;5137872;27;20088;-58
2023/03/04 02:39:55;;;;;;;1.70;0.60;;;;;;;;;;5139471;27;20039;-57
2023/03/04 02:42:21;;;;;;;2.13;0.82;;;;;;;;;;5132120;27;20039;-57
2023/03/04 02:44:49;;;;;;;2.75;0.70;;;;;;;;;;5137193;27;20045;-57
2023/03/04 02:47:17;;;;;;;3.25;0.70;;;;;;;;;;5133888;27;20061;-57
2023/03/04 02:49:43;;;;;;;0.95;0.57;;;;;;;;;;5135980;27;20099;-60
2023/03/04 02:52:12;;;;;;;4.03;0.85;;;;;;;;;;5135249;27;20050;-57
2023/03/04 02:54:39;;;;;;;2.67;1.00;;;;;;;;;;5133483;27;20104;-57
2023/03/04 02:57:06;;;;;;;2.03;0.90;;;;;;;;;;5133171;27;20439;-57
2023/03/04 02:59:32;;;;;;;5.20;1.02;;;;;;;;;;5133983;27;20047;-57
2023/03/04 03:01:58;;;;;;;2.92;0.68;;;;;;;;;;5139145;27;20453;-58
2023/03/04 03:04:25;;;;;;;2.92;0.50;;;;;;;;;;5134420;27;20075;-57
2023/03/04 03:06:51;;;;;;;5.18;1.15;;;;;;;;;;5133296;27;20100;-56
2023/03/04 03:09:17;;;;;;;2.88;0.73;;;;;;;;;;5116021;27;20049;-57
2023/03/04 03:11:43;;;;;;;4.18;0.82;;;;;;;;;;5135968;27;20078;-57
2023/03/04 03:14:09;;;;;;;4.68;0.73;;;;;;;;;;5134048;27;20039;-59
2023/03/04 03:16:35;;;;;;;8.25;0.73;;;;;;;;;;5119337;27;20710;-57
2023/03/04 03:19:01;;;;;;;2.58;0.45;;;;;;;;;;5134670;27;20038;-57
2023/03/04 03:21:27;;;;;;;1.17;0.38;;;;;;;;;;5137337;27;20622;-57
2023/03/04 03:23:53;;;;;;;2.75;0.40;;;;;;;;;;5116684;27;20108;-57
2023/03/04 03:26:19;;;;;;;2.65;0.82;;;;;;;;;;5138374;27;20038;-57
2023/03/04 03:28:45;;;;;;;2.05;0.95;;;;;;;;;;5133789;27;20051;-58
2023/03/04 03:31:11;;;;;;;2.42;0.57;;;;;;;;;;5134463;27;20070;-57
2023/03/04 03:33:37;;;;;;;1.98;0.50;;;;;;;;;;5133184;27;20633;-57
2023/03/04 03:36:03;;;;;;;2.08;0.32;;;;;;;;;;5133047;27;20051;-57
2023/03/04 03:38:29;;;;;;;2.38;0.60;;;;;;;;;;5134295;27;20039;-58
2023/03/04 03:40:55;;;;;;;2.85;0.73;;;;;;;;;;5132969;27;20047;-59
2023/03/04 03:43:21;;;;;;;4.30;0.90;;;;;;;;;;5134413;27;20623;-57
2023/03/04 03:45:47;;;;;;;1.30;0.65;;;;;;;;;;5134383;27;20062;-57
2023/03/04 03:48:13;;;;;;;3.67;0.50;;;;;;;;;;5135667;27;20568;-57
2023/03/04 03:50:39;;;;;;;2.92;1.15;;;;;;;;;;5131896;27;20050;-56
2023/03/04 03:53:06;;;;;;;2.15;0.95;;;;;;;;;;5137645;27;20034;-57
2023/03/04 03:55:32;;;;;;;2.45;0.60;;;;;;;;;;5136511;27;20046;-57
2023/03/04 03:57:58;;;;;;;0.98;0.50;;;;;;;;;;5133665;27;20046;-58
2023/03/04 04:00:24;;;;;;;1.15;0.60;;;;;;;;;;5131135;27;20047;-59
2023/03/04 04:02:50;;;;;;;2.13;0.70;;;;;;;;;;5135316;27;20038;-59
2023/03/04 04:05:16;;;;;;;1.92;0.93;;;;;;;;;;5132967;27;20039;-60
2023/03/04 04:07:42;;;;;;;0.70;0.20;;;;;;;;;;5134160;27;20119;-57
2023/03/04 04:10:08;;;;;;;1.73;0.73;;;;;;;;;;5114013;28;20549;-57
2023/03/04 04:12:34;;;;;;;2.75;0.50;;;;;;;;;;5138168;27;20039;-58
2023/03/04 04:15:00;;;;;;;4.20;0.55;;;;;;;;;;5141349;27;20458;-56
2023/03/04 04:17:26;;;;;;;2.38;0.43;;;;;;;;;;5137939;27;20095;-57
2023/03/04 04:19:52;;;;;;;2.38;0.25;;;;;;;;;;5141388;27;20043;-57
2023/03/04 04:22:20;;;;;;;0.40;0.20;;;;;;;;;;5140819;27;20039;-57
2023/03/04 04:24:46;;;;;;;1.55;0.52;;;;;;;;;;5143859;27;20038;-57
2023/03/04 04:27:12;;;;;;;2.53;0.60;;;;;;;;;;5144116;27;20039;-57
2023/03/04 04:29:38;;;;;;;4.10;0.95;;;;;;;;;;5143423;27;20042;-57
2023/03/04 04:32:05;;;;;;;2.80;0.50;;;;;;;;;;5138275;27;20050;-57
2023/03/04 04:34:31;;;;;;;0.52;0.30;;;;;;;;;;5142437;27;20118;-56
2023/03/04 04:36:57;;;;;;;4.40;0.50;;;;;;;;;;5139628;27;20129;-58
2023/03/04 04:39:23;;;;;;;1.75;0.43;;;;;;;;;;5139294;27;20138;-58
2023/03/04 04:41:49;;;;;;;3.75;0.63;;;;;;;;;;5148118;27;20142;-57
2023/03/04 04:44:15;;;;;;;0.95;0.40;;;;;;;;;;5142849;27;20038;-60
2023/03/04 04:46:42;;;;;;;3.78;1.00;;;;;;;;;;5138814;27;20394;-58
2023/03/04 04:49:08;;;;;;;3.83;0.70;;;;;;;;;;5142784;27;20045;-57
2023/03/04 04:51:35;;;;;;;4.22;1.23;;;;;;;;;;5138055;27;20051;-58
2023/03/04 04:54:02;;;;;;;7.68;1.80;;;;;;;;;;5138884;27;20039;-61
2023/03/04 04:56:28;;;;;;;3.03;0.55;;;;;;;;;;5142697;27;20043;-61
2023/03/04 04:58:56;;;;;;;1.83;0.70;;;;;;;;;;5140596;27;20058;-57
2023/03/04 05:01:22;;;;;;;1.38;0.40;;;;;;;;;;5142212;27;20046;-57
2023/03/04 05:03:49;;;;;;;3.92;0.60;;;;;;;;;;5141479;27;20047;-58
2023/03/04 05:06:15;;;;;;;5.72;0.68;;;;;;;;;;5136060;27;20047;-57
2023/03/04 05:08:41;;;;;;;2.80;0.50;;;;;;;;;;5138121;27;20068;-57
2023/03/04 05:11:08;;;;;;;1.35;0.50;;;;;;;;;;5143748;27;20080;-57
2023/03/04 05:13:35;;;;;;;1.15;0.40;;;;;;;;;;5140666;27;20042;-57
2023/03/04 05:16:01;;;;;;;2.70;0.60;;;;;;;;;;5139425;27;20054;-59
2023/03/04 05:18:27;;;;;;;4.28;0.73;;;;;;;;;;5140083;27;20046;-57
2023/03/04 05:20:54;;;;;;;3.97;0.70;;;;;;;;;;5143623;27;20474;-57
2023/03/04 05:23:21;;;;;;;3.42;0.80;;;;;;;;;;5135509;27;20039;-57
2023/03/04 05:25:47;;;;;;;6.03;0.93;;;;;;;;;;5142729;27;20076;-63
2023/03/04 05:28:13;;;;;;;3.03;1.00;;;;;;;;;;5139097;27;20486;-57
2023/03/04 05:30:40;;;;;;;4.20;0.85;;;;;;;;;;5139600;27;20043;-57
2023/03/04 05:33:07;;;;;;;3.47;0.77;;;;;;;;;;5138930;27;20078;-57
2023/03/04 05:35:34;;;;;;;6.95;0.82;;;;;;;;;;5138951;27;20055;-57
2023/03/04 05:38:00;;;;;;;1.85;0.70;;;;;;;;;;5142521;27;20047;-57
2023/03/04 05:40:26;;;;;;;3.20;0.68;;;;;;;;;;5140039;27;20170;-57
2023/03/04 05:42:52;;;;;;;4.03;0.65;;;;;;;;;;5137060;27;20584;-57
2023/03/04 05:45:18;;;;;;;2.40;0.90;;;;;;;;;;5137854;27;20047;-57
2023/03/04 05:47:44;;;;;;;7.05;1.05;;;;;;;;;;5135210;27;20041;-59
2023/03/04 05:50:11;;;;;;;4.72;0.80;;;;;;;;;;5135241;27;20047;-58
2023/03/04 05:52:37;;;;;;;2.72;0.60;;;;;;;;;;5122926;27;20054;-57
2023/03/04 05:55:03;;;;;;;3.53;1.00;;;;;;;;;;5135144;27;20039;-57
2023/03/04 05:57:29;;;;;;;3.50;0.95;;;;;;;;;;5135200;27;20047;-57
2023/03/04 05:59:55;;;;;;;3.55;0.70;;;;;;;;;;5134097;27;20129;-57
2023/03/04 06:02:21;;;;;;;6.85;1.38;;;;;;;;;;5132723;27;20058;-57
2023/03/04 06:04:47;;;;;;;1.70;0.85;;;;;;;;;;5137318;27;20042;-57
2023/03/04 06:07:13;;;;;;;6.18;1.52;;;;;;;;;;5139779;27;20047;-57
2023/03/04 06:09:38;;;;;;;2.92;0.82;;;;;;;;;;5134320;27;20425;-57
2023/03/04 06:12:05;;;;;;;1.63;0.40;;;;;;;;;;5138281;27;20066;-57
2023/03/04 06:14:30;;;;;;;3.13;0.60;;;;;;;;;;5139229;27;20042;-60
2023/03/04 06:16:56;;;;;;;2.83;0.95;;;;;;;;;;5135959;27;20457;-57
2023/03/04 06:19:23;;;;;;;1.33;0.47;;;;;;;;;;5140113;27;20043;-58
2023/03/04 06:21:49;;;;;;;4.35;1.08;;;;;;;;;;5138251;27;20039;-58
2023/03/04 06:24:15;;;;;;;4.97;0.60;;;;;;;;;;5142853;27;20039;-57
2023/03/04 06:26:41;;;;;;;4.63;0.77;;;;;;;;;;5137912;27;20039;-57
2023/03/04 06:29:07;;;;;;;4.32;1.33;;;;;;;;;;5138593;27;20045;-57
2023/03/04 06:31:33;;;;;;;2.65;0.80;;;;;;;;;;5140481;27;20407;-57
2023/03/04 06:33:59;;;;;;;1.73;0.43;;;;;;;;;;5136851;27;20138;-60
2023/03/04 06:36:25;;;;;;;2.22;0.63;;;;;;;;;;5134439;27;20118;-58
2023/03/04 06:38:51;;;;;;;4.95;0.85;;;;;;;;;;5135126;27;20042;-57
2023/03/04 06:41:17;;;;;;;1.17;0.40;;;;;;;;;;5138430;27;20030;-58
2023/03/04 06:43:43;;;;;;;3.13;0.70;;;;;;;;;;5135719;27;20532;-57
2023/03/04 06:46:09;;;;;;;2.05;0.38;;;;;;;;;;5135780;27;20035;-57
2023/03/04 06:48:35;;;;;;;2.35;0.80;;;;;;;;;;5138315;27;20042;-57
2023/03/04 06:51:08;;;;;;;4.32;0.40;;;;;;;;;;5136662;27;20088;-58
2023/03/04 06:53:34;;;;;;;4.72;1.13;;;;;;;;;;5135351;27;20043;-57
2023/03/04 06:56:00;;;;;;;3.08;1.05;;;;;;;;;;5133389;27;20047;-57
2023/03/04 06:58:26;;;;;;;2.80;0.77;;;;;;;;;;5136387;27;20040;-56
2023/03/04 07:00:52;;;;;;;2.30;0.60;;;;;;;;;;5117091;27;20114;-57
2023/03/04 07:03:18;;;;;;;3.65;0.68;;;;;;;;;;5140568;27;20488;-57
2023/03/04 07:05:44;;;;;;;4.60;0.70;;;;;;;;;;5136301;27;20047;-57
2023/03/04 07:08:10;;;;;;;6.43;1.08;;;;;;;;;;5137184;27;20046;-59
2023/03/04 07:10:36;;;;;;;3.72;1.05;;;;;;;;;;5131037;27;20451;-59
2023/03/04 07:13:03;;;;;;;2.50;0.70;;;;;;;;;;5136248;27;20066;-57
2023/03/04 07:15:29;;;;;;;2.17;0.63;;;;;;;;;;5132759;27;20047;-57
2023/03/04 07:17:55;;;;;;;1.25;0.30;;;;;;;;;;5136766;27;20034;-57
2023/03/04 07:20:21;;;;;;;3.63;0.80;;;;;;;;;;5135428;27;20122;-59
2023/03/04 07:22:47;;;;;;;0.60;0.20;;;;;;;;;;5133506;27;20067;-57
2023/03/04 07:25:13;;;;;;;2.05;0.40;;;;;;;;;;5140443;27;20062;-57
2023/03/04 07:27:39;;;;;;;0.60;0.20;;;;;;;;;;5137122;27;20042;-59
2023/03/04 07:30:06;;;;;;;1.45;0.40;;;;;;;;;;5133039;27;20143;-57
2023/03/04 07:32:34;;;;;;;1.75;0.38;;;;;;;;;;5135347;27;20057;-57
2023/03/04 07:35:00;;;;;;;2.75;0.90;;;;;;;;;;5136137;27;20390;-57
2023/03/04 07:37:26;;;;;;;3.85;0.95;;;;;;;;;;5136477;27;20054;-57
2023/03/04 07:39:52;;;;;;;7.38;1.67;;;;;;;;;;5138015;27;20050;-58
2023/03/04 07:42:18;;;;;;;4.68;0.90;;;;;;;;;;5117494;27;20066;-57
2023/03/04 07:44:44;;;;;;;5.75;1.50;;;;;;;;;;5133462;27;20031;-57
2023/03/04 07:47:10;;;;;;;9.52;2.10;;;;;;;;;;5137216;27;20046;-57
2023/03/04 07:49:36;;;;;;;7.57;2.03;;;;;;;;;;5131376;27;20073;-57
2023/03/04 07:52:03;;;;;;;8.45;1.45;;;;;;;;;;5138236;27;20049;-57
2023/03/04 07:54:29;;;;;;;11.68;2.20;;;;;;;;;;5137482;27;20045;-57
2023/03/04 07:56:56;;;;;;;11.65;1.70;;;;;;;;;;5138582;27;20043;-57
2023/03/04 07:59:22;;;;;;;6.72;1.55;;;;;;;;;;5137213;27;20038;-61
2023/03/04 08:01:48;;;;;;;3.90;1.83;;;;;;;;;;5136420;27;20034;-56
2023/03/04 08:04:14;;;;;;;7.88;1.50;;;;;;;;;;5134895;27;20180;-57
2023/03/04 08:06:40;;;;;;;7.05;1.30;;;;;;;;;;5136257;27;20138;-56
2023/03/04 08:09:07;;;;;;;5.53;1.10;;;;;;;;;;5132300;27;20043;-57
2023/03/04 08:11:35;;;;;;;5.75;1.25;;;;;;;;;;5133533;27;20051;-59
2023/03/04 08:14:01;;;;;;;4.47;0.88;;;;;;;;;;5133198;27;20502;-57
2023/03/04 08:16:27;;;;;;;8.27;1.58;;;;;;;;;;5131540;27;20047;-55
2023/03/04 08:18:57;;;;;;;9.30;2.25;;;;;;;;;;5133514;27;20095;-55
2023/03/04 08:21:24;;;;;;;3.55;1.33;;;;;;;;;;5137817;27;20405;-55
2023/03/04 08:23:51;;;;;;;8.15;2.03;;;;;;;;;;5134155;27;20105;-54
2023/03/04 08:26:21;;;;;;;4.68;1.48;;;;;;;;;;5141377;27;20563;-54
2023/03/04 08:28:47;;;;;;;4.72;1.50;;;;;;;;;;5139285;27;20517;-54
2023/03/04 08:31:14;;;;;;;6.35;1.02;;;;;;;;;;5135921;27;20054;-54
2023/03/04 08:33:40;;;;;;;6.18;1.83;;;;;;;;;;5136385;27;20087;-54
2023/03/04 08:36:07;;;;;;;5.85;1.63;;;;;;;;;;5137096;27;20452;-54
2023/03/04 08:38:33;;;;;;;4.55;1.42;;;;;;;;;;5135554;27;20047;-55
2023/03/04 08:40:59;;;;;;;7.72;1.63;;;;;;;;;;5133854;27;20054;-55
2023/03/04 08:43:26;;;;;;;6.50;1.58;;;;;;;;;;5135388;27;20497;-55
2023/03/04 08:45:52;;;;;;;5.90;1.95;;;;;;;;;;5138904;27;20181;-55
2023/03/04 08:48:18;;;;;;;12.93;2.45;;;;;;;;;;5134965;27;20447;-55
2023/03/04 08:50:45;;;;;;;8.38;2.15;;;;;;;;;;5133609;27;20126;-55
2023/03/04 08:53:11;;;;;;;7.00;1.27;;;;;;;;;;5137780;27;20034;-55
2023/03/04 08:55:41;;;;;;;8.30;1.60;;;;;;;;;;5131245;27;20855;-55
2023/03/04 08:58:07;;;;;;;5.63;2.00;;;;;;;;;;5128323;27;20050;-55
2023/03/04 09:00:34;;;;;;;8.23;1.65;;;;;;;;;;5117607;27;20039;-53
2023/03/04 09:03:00;;;;;;;10.00;2.13;;;;;;;;;;5136403;27;20437;-56
2023/03/04 09:05:26;;;;;;;9.88;2.33;;;;;;;;;;5138307;27;20047;-55
2023/03/04 09:07:53;;;;;;;9.10;2.17;;;;;;;;;;5139488;27;20096;-58
2023/03/04 09:10:19;;;;;;;8.07;2.03;;;;;;;;;;5139010;27;20054;-56
2023/03/04 09:12:45;;;;;;;7.35;1.80;;;;;;;;;;5139847;27;20100;-56
2023/03/04 09:15:11;;;;;;;8.13;1.92;;;;;;;;;;5135791;27;20047;-55
2023/03/04 09:17:37;;;;;;;8.02;2.20;;;;;;;;;;5140471;27;20405;-55
2023/03/04 09:20:04;;;;;;;7.35;1.58;;;;;;;;;;5138251;27;20548;-54
2023/03/04 09:22:30;;;;;;;6.53;1.98;;;;;;;;;;5141006;27;20051;-55
2023/03/04 09:24:56;;;;;;;8.48;2.25;;;;;;;;;;5138111;27;20095;-54
2023/03/04 09:27:22;;;;;;;5.30;1.83;;;;;;;;;;5136641;27;20035;-55
2023/03/04 09:29:48;;;;;;;10.25;2.47;;;;;;;;;;5137079;27;20046;-56
2023/03/04 09:32:14;;;;;;;4.07;1.88;;;;;;;;;;5135196;27;20039;-55
2023/03/04 09:34:40;;;;;;;7.53;1.65;;;;;;;;;;5138212;27;20037;-56
2023/03/04 09:37:06;;;;;;;6.38;1.17;;;;;;;;;;5137521;27;20711;-56
2023/03/04 09:39:32;;;;;;;3.60;1.10;;;;;;;;;;5131871;27;20122;-56
2023/03/04 09:41:58;;;;;;;9.65;2.05;;;;;;;;;;5134188;27;20043;-55
2023/03/04 09:44:29;;;;;;;3.50;0.70;;;;;;;;;;5138807;27;20035;-55
2023/03/04 09:46:57;;;;;;;3.33;0.75;;;;;;;;;;5134740;27;20121;-55
2023/03/04 09:49:23;;;;;;;3.88;0.75;;;;;;;;;;5135513;27;20408;-54
2023/03/04 09:51:52;;;;;;;1.27;0.47;;;;;;;;;;5138929;27;20089;-56
2023/03/04 09:54:37;;;;;;;1.77;0.47;;;;;;;;;;5134884;27;20046;-56
2023/03/04 09:57:23;;;;;;;3.53;1.27;;;;;;;;;;5136649;27;20383;-57
2023/03/04 09:59:55;;;;;;;5.95;1.15;;;;;;;;;;5134900;27;20049;-56
2023/03/04 10:02:41;;;;;;;2.25;0.52;;;;;;;;;;5139156;27;20070;-56
2023/03/04 10:05:12;;;;;;;2.80;0.52;;;;;;;;;;5071138;27;20086;-56
2023/03/04 10:07:41;;;;;;;3.15;0.80;;;;;;;;;;5144942;27;20462;-56
2023/03/04 10:10:11;;;;;;;2.78;0.60;;;;;;;;;;5137452;27;20130;-56
2023/03/04 10:12:39;;;;;;;3.17;0.60;;;;;;;;;;5123801;27;20038;-56
2023/03/04 10:15:31;;;;;;;2.70;0.90;;;;;;;;;;5133802;27;20047;-57
2023/03/04 10:18:03;;;;;;;2.70;0.90;;;;;;;;;;5129525;27;20051;-60
2023/03/04 10:20:36;;;;;;;6.15;1.52;;;;;;;;;;5137708;27;20046;-57
2023/03/04 10:23:08;;;;;;;4.20;1.20;;;;;;;;;;5137949;27;20041;-57
2023/03/04 10:25:34;;;;;;;4.47;0.77;;;;;;;;;;5137966;27;20053;-57
2023/03/04 10:28:02;;;;;;;5.13;1.42;;;;;;;;;;5130422;27;20046;-57
2023/03/04 10:30:39;;;;;;;4.15;1.25;;;;;;;;;;5135986;27;20046;-57
2023/03/04 10:33:12;;;;;;;7.85;1.30;;;;;;;;;;5130566;27;20374;-58
2023/03/04 10:35:39;;;;;;;6.22;1.48;;;;;;;;;;5136685;27;20071;-58
2023/03/04 10:38:06;;;;;;;8.77;1.35;;;;;;;;;;5129829;27;20051;-57
2023/03/04 10:40:37;;;;;;;7.38;2.08;;;;;;;;;;5135874;27;20054;-58
2023/03/04 10:43:06;;;;;;;9.60;2.35;;;;;;;;;;5125401;27;20047;-57
2023/03/04 10:45:37;;;;;;;3.13;1.55;;;;;;;;;;5130050;27;20088;-57
2023/03/04 10:48:04;;;;;;;7.53;1.35;;;;;;;;;;5130445;27;20039;-56
2023/03/04 10:50:31;;;;;;;10.50;1.77;;;;;;;;;;5141044;27;20043;-56
2023/03/04 10:52:57;;;;;;;3.30;1.20;;;;;;;;;;5127850;27;20095;-56
2023/03/04 10:55:23;;;;;;;6.97;1.80;;;;;;;;;;5130488;27;20051;-57
2023/03/04 10:58:10;;;;;;;4.85;1.30;;;;;;;;;;5133464;27;20201;-57
2023/03/04 11:00:36;;;;;;;9.25;2.08;;;;;;;;;;5136494;27;20069;-57
2023/03/04 11:03:21;;;;;;;5.95;1.60;;;;;;;;;;5135600;27;20056;-57
2023/03/04 11:05:47;;;;;;;6.30;1.60;;;;;;;;;;5131797;27;20134;-57
2023/03/04 11:08:18;;;;;;;3.97;1.02;;;;;;;;;;5145499;27;20047;-57
2023/03/04 11:10:44;;;;;;;7.55;1.15;;;;;;;;;;5131118;27;20331;-57
2023/03/04 11:13:10;;;;;;;4.38;2.15;;;;;;;;;;5126715;27;20046;-58
2023/03/04 11:15:48;;;;;;;5.05;1.73;;;;;;;;;;5126433;27;20054;-59
2023/03/04 11:18:15;;;;;;;3.65;0.93;;;;;;;;;;5125420;27;20043;-55
2023/03/04 11:20:47;;;;;;;5.00;1.30;;;;;;;;;;5125820;27;20403;-58
2023/03/04 11:23:17;;;;;;;7.95;1.30;;;;;;;;;;5124988;27;20054;-57
2023/03/04 11:25:46;;;;;;;5.05;1.63;;;;;;;;;;5124950;27;20434;-57
2023/03/04 11:28:31;;;;;;;7.88;1.45;;;;;;;;;;5124787;27;20035;-57
2023/03/04 11:31:00;;;;;;;4.57;1.35;;;;;;;;;;5137600;27;20096;-58
2023/03/04 11:33:35;;;;;;;8.02;1.70;;;;;;;;;;5124389;27;20075;-57
2023/03/04 11:36:21;;;;;;;4.32;1.50;;;;;;;;;;5123053;27;20524;-57
2023/03/04 11:38:48;;;;;;;5.05;1.48;;;;;;;;;;5123031;27;20501;-58
2023/03/04 11:41:24;;;;;;;8.88;2.58;;;;;;;;;;5125129;27;20050;-57
2023/03/04 11:43:50;;;;;;;7.05;2.35;;;;;;;;;;5125992;27;20047;-57
2023/03/04 11:46:20;;;;;;;7.43;1.17;;;;;;;;;;5125196;27;20047;-57
2023/03/04 11:48:57;;;;;;;4.45;1.70;;;;;;;;;;5124457;27;20055;-60
2023/03/04 11:51:25;;;;;;;4.18;1.20;;;;;;;;;;5124935;27;20078;-57
2023/03/04 11:54:10;;;;;;;3.03;1.40;;;;;;;;;;5122418;27;20304;-57
2023/03/04 11:56:43;;;;;;;5.40;1.60;;;;;;;;;;5123018;27;20047;-57
2023/03/04 11:59:09;;;;;;;;;;;;;;;;;;5123342;27;20086;-57
2023/03/04 12:01:47;;;;;;;3.80;1.17;;;;;;;;;;5104382;28;19955;-57
2023/03/04 12:04:13;;;;;;;6.35;1.80;;;;;;;;;;5124588;27;20520;-58
2023/03/04 12:06:49;;;;;;;6.35;2.22;;;;;;;;;;5124678;27;20057;-57
2023/03/04 12:09:15;;;;;;;10.57;1.67;;;;;;;;;;5125213;27;20054;-58
2023/03/04 12:11:50;;;;;;;10.13;2.22;;;;;;;;;;5124702;27;20401;-57
2023/03/04 12:14:21;;;;;;;6.40;1.98;;;;;;;;;;5123909;28;20043;-57
2023/03/04 12:16:47;;;;;;;6.78;1.92;;;;;;;;;;5124731;28;20069;-57
2023/03/04 12:19:22;;;;;;;12.05;1.85;;;;;;;;;;5124943;28;20043;-57
2023/03/04 12:22:05;;;;;;;10.07;2.67;;;;;;;;;;5124386;28;20730;-57
2023/03/04 12:24:41;;;;;;;8.52;1.83;;;;;;;;;;5125012;28;20043;-57
2023/03/04 12:27:26;;;;;;;8.18;1.80;;;;;;;;;;5125144;28;20043;-59
2023/03/04 12:29:58;;;;;;;6.15;1.35;;;;;;;;;;5124602;28;20043;-57
2023/03/04 12:32:24;;;;;;;;;;;;;;;;;;5126737;27;20051;-56
2023/03/04 12:35:07;;;;;;;5.00;1.15;;;;;;;;;;5129128;27;19926;-57
2023/03/04 12:37:36;;;;;;;6.78;1.42;;;;;;;;;;5129301;27;20043;-57
2023/03/04 12:40:20;;;;;;;5.70;2.03;;;;;;;;;;5137648;27;20047;-59
2023/03/04 12:42:46;;;;;;;5.65;1.98;;;;;;;;;;5136886;27;20039;-57
2023/03/04 12:45:12;;;;;;;3.85;1.17;;;;;;;;;;5144214;27;20042;-57
2023/03/04 12:47:54;;;;;;;9.38;1.75;;;;;;;;;;5142197;27;20051;-58
2023/03/04 12:50:26;;;;;;;7.88;1.77;;;;;;;;;;5119921;27;20035;-57
2023/03/04 12:53:01;;;;;;;4.28;1.20;;;;;;;;;;5131496;27;20031;-59
2023/03/04 12:55:35;;;;;;;6.38;1.30;;;;;;;;;;5137421;27;20043;-58
2023/03/04 12:58:01;;;;;;;4.25;1.70;;;;;;;;;;5142740;27;20183;-57
2023/03/04 13:00:39;;;;;;;6.30;1.20;;;;;;;;;;5113639;27;20131;-61
2023/03/04 13:03:14;;;;;;;3.80;0.93;;;;;;;;;;5132585;27;20126;-57
2023/03/04 13:06:01;;;;;;;4.22;1.48;;;;;;;;;;5140572;27;20050;-57
2023/03/04 13:08:27;;;;;;;2.45;0.45;;;;;;;;;;5137312;27;20047;-58
2023/03/04 13:10:53;;;;;;;3.78;0.73;;;;;;;;;;5144382;27;20151;-57
2023/03/04 13:13:37;;;;;;;5.00;1.63;;;;;;;;;;5148922;27;20401;-57
2023/03/04 13:16:26;;;;;;;5.40;1.85;;;;;;;;;;5140999;27;20069;-57
2023/03/04 13:18:52;;;;;;;3.35;1.15;;;;;;;;;;5132265;27;20078;-61
2023/03/04 13:21:30;;;;;;;2.00;1.20;;;;;;;;;;5147301;27;20074;-59
2023/03/04 13:23:57;;;;;;;2.67;0.80;;;;;;;;;;5127090;27;20362;-57
2023/03/04 13:26:31;;;;;;;3.35;1.00;;;;;;;;;;5133043;27;20043;-57
2023/03/04 13:29:15;;;;;;;2.80;1.42;;;;;;;;;;5132210;27;20500;-57
2023/03/04 13:32:00;;;;;;;3.75;1.10;;;;;;;;;;5146702;27;20046;-57
2023/03/04 13:34:46;;;;;;;2.63;0.88;;;;;;;;;;5134140;27;20047;-57
2023/03/04 13:37:31;;;;;;;3.95;1.13;;;;;;;;;;5127460;27;20474;-56
2023/03/04 13:40:17;;;;;;;8.95;1.65;;;;;;;;;;5135475;27;20046;-60
2023/03/04 13:42:44;;;;;;;6.10;1.90;;;;;;;;;;5147413;27;20055;-57
2023/03/04 13:45:28;;;;;;;4.55;1.50;;;;;;;;;;5136805;27;20433;-57
2023/03/04 13:47:54;;;;;;;9.60;2.03;;;;;;;;;;5136115;27;20047;-57
2023/03/04 13:50:28;;;;;;;7.80;1.65;;;;;;;;;;5129160;27;20072;-57
2023/03/04 13:52:55;;;;;;;6.22;1.60;;;;;;;;;;5131408;27;20550;-57
2023/03/04 13:55:37;;;;;;;4.75;1.33;;;;;;;;;;5132465;27;20067;-58
2023/03/04 13:58:03;;;;;;;;;;;;;;;;;;5133801;27;20512;-58
2023/03/04 14:00:31;;;;;;;2.90;0.95;;;;;;;;;;5114904;27;19919;-57
2023/03/04 14:03:11;;;;;;;3.47;1.25;;;;;;;;;;5137107;27;20320;-57
2023/03/04 14:05:37;;;;;;;3.70;1.08;;;;;;;;;;5134683;27;20642;-58
2023/03/04 14:08:19;;;;;;;6.10;1.55;;;;;;;;;;5126759;27;20104;-58
2023/03/04 14:10:54;;;;;;;2.88;0.90;;;;;;;;;;5135076;27;20133;-58
2023/03/04 14:13:21;;;;;;;4.15;1.27;;;;;;;;;;5127069;27;20031;-57
2023/03/04 14:15:54;;;;;;;4.55;1.50;;;;;;;;;;5137018;27;20058;-58
2023/03/04 14:18:20;;;;;;;4.40;1.20;;;;;;;;;;5136524;27;20034;-58
2023/03/04 14:20:49;;;;;;;3.95;0.82;;;;;;;;;;5132879;27;20061;-60
2023/03/04 14:23:29;;;;;;;2.65;1.00;;;;;;;;;;5136176;27;20151;-61
2023/03/04 14:26:07;;;;;;;2.53;0.85;;;;;;;;;;5134081;27;20053;-58
2023/03/04 14:28:33;;;;;;;5.60;1.45;;;;;;;;;;5132159;27;20090;-58
2023/03/04 14:30:59;;;;;;;5.00;1.25;;;;;;;;;;5131442;27;20047;-59
2023/03/04 14:33:27;;;;;;;4.35;0.80;;;;;;;;;;5132525;27;20454;-57
2023/03/04 14:35:55;;;;;;;5.60;1.50;;;;;;;;;;5129438;27;20405;-58
2023/03/04 14:38:21;;;;;;;5.28;1.85;;;;;;;;;;5126850;27;20431;-60
2023/03/04 14:40:52;;;;;;;4.72;1.38;;;;;;;;;;5136033;27;20038;-62
2023/03/04 14:43:20;;;;;;;6.72;1.73;;;;;;;;;;5127003;27;20099;-60
2023/03/04 14:45:48;;;;;;;5.75;1.40;;;;;;;;;;5133894;27;20062;-58
2023/03/04 14:48:24;;;;;;;4.63;1.85;;;;;;;;;;5132301;27;20072;-58
2023/03/04 14:50:51;;;;;;;4.03;0.80;;;;;;;;;;5126214;27;20050;-57